Anzahl Datensätze: 288
min. Temperatur: 12.8 °C
max. Temperatur: 28.2 °C
max. Windgeschwindigkeit: 20.9 km/h
Niederschlagsumme: 0.0 mm
| Datum |
Zeit |
Temp °C |
Feuchte % |
Taupunkt °C |
Luftdruck hPa |
Wind km/h |
Windrichtung |
Strahlung w/m² |
Niederschlag mm |
|---|---|---|---|---|---|---|---|---|---|
| 23.06.2020 | 00:04 | 16.2 | 79 | 12.6 | 1022.7 | 0.0 | NNW | 0 | 0.0 |
| 23.06.2020 | 00:08 | 16.2 | 79 | 12.6 | 1022.7 | 0.0 | NNW | 0 | 0.0 |
| 23.06.2020 | 00:14 | 15.9 | 80 | 12.5 | 1022.8 | 0.0 | NNW | 0 | 0.0 |
| 23.06.2020 | 00:18 | 15.8 | 80 | 12.4 | 1022.7 | 0.0 | NNW | 0 | 0.0 |
| 23.06.2020 | 00:24 | 15.6 | 81 | 12.4 | 1022.8 | 0.0 | NNW | 0 | 0.0 |
| 23.06.2020 | 00:28 | 15.4 | 82 | 12.3 | 1022.8 | 0.0 | NNW | 0 | 0.0 |
| 23.06.2020 | 00:34 | 15.6 | 81 | 12.4 | 1022.8 | 0.0 | NNW | 0 | 0.0 |
| 23.06.2020 | 00:38 | 15.4 | 81 | 12.2 | 1022.8 | 0.0 | NNW | 0 | 0.0 |
| 23.06.2020 | 00:44 | 15.2 | 82 | 12.1 | 1022.8 | 0.0 | NNW | 0 | 0.0 |
| 23.06.2020 | 00:48 | 15.2 | 83 | 12.3 | 1022.8 | 0.0 | NNW | 0 | 0.0 |
| 23.06.2020 | 00:54 | 15.2 | 83 | 12.3 | 1022.9 | 0.0 | NNW | 0 | 0.0 |
| 23.06.2020 | 00:58 | 15.0 | 84 | 12.3 | 1022.9 | 0.0 | NNW | 0 | 0.0 |
| 23.06.2020 | 01:04 | 14.8 | 85 | 12.3 | 1022.9 | 0.0 | NNW | 0 | 0.0 |
| 23.06.2020 | 01:08 | 14.7 | 85 | 12.2 | 1022.9 | 0.0 | NNW | 0 | 0.0 |
| 23.06.2020 | 01:14 | 14.7 | 85 | 12.2 | 1022.9 | 0.0 | NNW | 0 | 0.0 |
| 23.06.2020 | 01:18 | 14.6 | 85 | 12.1 | 1022.9 | 0.0 | NNW | 0 | 0.0 |
| 23.06.2020 | 01:24 | 14.6 | 86 | 12.3 | 1022.9 | 0.0 | NNW | 0 | 0.0 |
| 23.06.2020 | 01:28 | 14.5 | 86 | 12.2 | 1022.9 | 0.0 | NNW | 0 | 0.0 |
| 23.06.2020 | 01:34 | 14.2 | 87 | 12.1 | 1022.9 | 0.0 | NNW | 0 | 0.0 |
| 23.06.2020 | 01:38 | 13.9 | 87 | 11.8 | 1022.9 | 0.0 | NNW | 0 | 0.0 |
| 23.06.2020 | 01:44 | 13.8 | 88 | 11.8 | 1023.0 | 0.0 | NNW | 0 | 0.0 |
| 23.06.2020 | 01:48 | 13.8 | 89 | 12.0 | 1022.9 | 0.0 | NNW | 0 | 0.0 |
| 23.06.2020 | 01:54 | 13.8 | 89 | 12.0 | 1022.9 | 0.0 | NNW | 0 | 0.0 |
| 23.06.2020 | 01:58 | 13.8 | 89 | 12.0 | 1022.9 | 0.0 | NNW | 0 | 0.0 |
| 23.06.2020 | 02:04 | 13.8 | 89 | 12.0 | 1023.0 | 0.0 | NNW | 0 | 0.0 |
| 23.06.2020 | 02:08 | 13.7 | 89 | 11.9 | 1023.1 | 0.0 | NNW | 0 | 0.0 |
| 23.06.2020 | 02:14 | 13.6 | 90 | 12.0 | 1023.0 | 0.0 | NNW | 0 | 0.0 |
| 23.06.2020 | 02:18 | 13.6 | 90 | 12.0 | 1023.1 | 0.0 | NNW | 0 | 0.0 |
| 23.06.2020 | 02:24 | 13.6 | 90 | 12.0 | 1023.1 | 0.0 | NNW | 0 | 0.0 |
| 23.06.2020 | 02:28 | 13.6 | 90 | 12.0 | 1023.0 | 0.0 | NNW | 0 | 0.0 |
| 23.06.2020 | 02:34 | 13.6 | 90 | 12.0 | 1023.1 | 0.0 | NNW | 0 | 0.0 |
| 23.06.2020 | 02:38 | 13.5 | 90 | 11.9 | 1023.1 | 0.0 | NNW | 0 | 0.0 |
| 23.06.2020 | 02:44 | 13.3 | 90 | 11.7 | 1023.1 | 0.0 | NNW | 0 | 0.0 |
| 23.06.2020 | 02:48 | 13.3 | 90 | 11.7 | 1023.0 | 0.0 | NNW | 0 | 0.0 |
| 23.06.2020 | 02:54 | 13.2 | 90 | 11.6 | 1023.0 | 0.0 | NNW | 0 | 0.0 |
| 23.06.2020 | 02:58 | 13.2 | 90 | 11.6 | 1023.0 | 0.0 | NNW | 0 | 0.0 |
| 23.06.2020 | 03:04 | 13.1 | 90 | 11.5 | 1023.0 | 0.0 | NNW | 0 | 0.0 |
| 23.06.2020 | 03:08 | 13.1 | 91 | 11.7 | 1022.9 | 0.0 | NNW | 0 | 0.0 |
| 23.06.2020 | 03:14 | 13.1 | 91 | 11.7 | 1022.9 | 0.0 | NNW | 0 | 0.0 |
| 23.06.2020 | 03:18 | 13.1 | 91 | 11.7 | 1023.0 | 0.0 | NNW | 0 | 0.0 |
| 23.06.2020 | 03:24 | 13.2 | 91 | 11.8 | 1022.9 | 0.0 | NNW | 0 | 0.0 |
| 23.06.2020 | 03:28 | 13.2 | 90 | 11.6 | 1022.9 | 0.0 | NNW | 0 | 0.0 |
| 23.06.2020 | 03:34 | 13.2 | 90 | 11.6 | 1022.9 | 0.0 | NNW | 0 | 0.0 |
| 23.06.2020 | 03:38 | 13.1 | 90 | 11.5 | 1022.9 | 0.0 | NNW | 0 | 0.0 |
| 23.06.2020 | 03:44 | 13.1 | 90 | 11.5 | 1022.8 | 0.0 | NNW | 0 | 0.0 |
| 23.06.2020 | 03:48 | 13.2 | 90 | 11.6 | 1022.8 | 0.0 | NNW | 0 | 0.0 |
| 23.06.2020 | 03:54 | 13.2 | 90 | 11.6 | 1022.8 | 0.0 | NNW | 0 | 0.0 |
| 23.06.2020 | 03:58 | 13.2 | 90 | 11.6 | 1022.8 | 0.0 | NNW | 0 | 0.0 |
| 23.06.2020 | 04:04 | 13.1 | 90 | 11.5 | 1022.9 | 0.0 | NNW | 0 | 0.0 |
| 23.06.2020 | 04:08 | 13.1 | 90 | 11.5 | 1022.9 | 0.0 | NNW | 0 | 0.0 |
| 23.06.2020 | 04:14 | 13.1 | 90 | 11.5 | 1023.0 | 0.0 | NNW | 0 | 0.0 |
| 23.06.2020 | 04:18 | 13.1 | 90 | 11.5 | 1023.0 | 0.0 | NNW | 0 | 0.0 |
| 23.06.2020 | 04:24 | 13.0 | 90 | 11.4 | 1023.0 | 0.0 | NNW | 0 | 0.0 |
| 23.06.2020 | 04:28 | 12.9 | 90 | 11.3 | 1023.0 | 0.0 | NNW | 0 | 0.0 |
| 23.06.2020 | 04:34 | 13.0 | 90 | 11.4 | 1023.0 | 0.0 | NNW | 0 | 0.0 |
| 23.06.2020 | 04:38 | 13.0 | 90 | 11.4 | 1023.0 | 0.0 | NNW | 0 | 0.0 |
| 23.06.2020 | 04:44 | 12.9 | 90 | 11.3 | 1023.0 | 0.0 | NNW | 0 | 0.0 |
| 23.06.2020 | 04:48 | 12.9 | 90 | 11.3 | 1023.0 | 0.0 | NNW | 0 | 0.0 |
| 23.06.2020 | 04:54 | 12.9 | 90 | 11.3 | 1023.0 | 0.0 | NNW | 0 | 0.0 |
| 23.06.2020 | 04:58 | 12.8 | 90 | 11.2 | 1023.1 | 0.0 | NNW | 0 | 0.0 |
| 23.06.2020 | 05:04 | 12.8 | 90 | 11.2 | 1023.0 | 0.0 | NNW | 0 | 0.0 |
| 23.06.2020 | 05:08 | 12.9 | 90 | 11.3 | 1023.0 | 0.0 | NNW | 0 | 0.0 |
| 23.06.2020 | 05:14 | 12.9 | 90 | 11.3 | 1023.0 | 0.0 | NNW | 0 | 0.0 |
| 23.06.2020 | 05:18 | 12.8 | 90 | 11.2 | 1023.0 | 0.0 | NNW | 0 | 0.0 |
| 23.06.2020 | 05:24 | 12.8 | 90 | 11.2 | 1023.0 | 0.0 | NNW | 5 | 0.0 |
| 23.06.2020 | 05:28 | 12.9 | 90 | 11.3 | 1023.1 | 0.0 | WSW | 7 | 0.0 |
| 23.06.2020 | 05:34 | 12.9 | 90 | 11.3 | 1023.0 | 0.0 | WSW | 9 | 0.0 |
| 23.06.2020 | 05:38 | 12.9 | 90 | 11.3 | 1023.1 | 0.0 | N | 11 | 0.0 |
| 23.06.2020 | 05:44 | 12.9 | 90 | 11.3 | 1023.0 | 0.0 | N | 14 | 0.0 |
| 23.06.2020 | 05:48 | 12.9 | 90 | 11.3 | 1023.0 | 0.0 | N | 16 | 0.0 |
| 23.06.2020 | 05:54 | 12.9 | 90 | 11.3 | 1023.0 | 0.0 | N | 18 | 0.0 |
| 23.06.2020 | 05:58 | 12.9 | 90 | 11.3 | 1023.0 | 0.0 | N | 19 | 0.0 |
| 23.06.2020 | 06:04 | 13.0 | 90 | 11.4 | 1023.0 | 0.0 | N | 21 | 0.0 |
| 23.06.2020 | 06:08 | 13.1 | 90 | 11.5 | 1023.1 | 0.0 | N | 23 | 0.0 |
| 23.06.2020 | 06:14 | 13.1 | 90 | 11.5 | 1023.0 | 0.0 | N | 26 | 0.0 |
| 23.06.2020 | 06:18 | 13.2 | 90 | 11.6 | 1023.0 | 0.0 | NNW | 28 | 0.0 |
| 23.06.2020 | 06:24 | 13.4 | 90 | 11.8 | 1023.0 | 0.0 | SSW | 30 | 0.0 |
| 23.06.2020 | 06:28 | 13.6 | 89 | 11.8 | 1023.2 | 0.0 | N | 32 | 0.0 |
| 23.06.2020 | 06:34 | 13.8 | 89 | 12.0 | 1023.1 | 0.0 | N | 33 | 0.0 |
| 23.06.2020 | 06:38 | 14.0 | 88 | 12.0 | 1023.2 | 0.0 | NNO | 33 | 0.0 |
| 23.06.2020 | 06:44 | 14.3 | 88 | 12.3 | 1023.2 | 0.0 | NNO | 37 | 0.0 |
| 23.06.2020 | 06:48 | 14.4 | 88 | 12.4 | 1023.2 | 0.0 | N | 39 | 0.0 |
| 23.06.2020 | 06:54 | 14.7 | 87 | 12.6 | 1023.1 | 1.4 | N | 40 | 0.0 |
| 23.06.2020 | 06:58 | 14.8 | 87 | 12.7 | 1023.2 | 3.2 | N | 42 | 0.0 |
| 23.06.2020 | 07:04 | 15.1 | 86 | 12.8 | 1023.2 | 3.2 | NNO | 44 | 0.0 |
| 23.06.2020 | 07:08 | 15.3 | 86 | 13.0 | 1023.3 | 3.2 | N | 46 | 0.0 |
| 23.06.2020 | 07:14 | 15.5 | 85 | 13.0 | 1023.2 | 3.2 | NNO | 47 | 0.0 |
| 23.06.2020 | 07:18 | 15.7 | 85 | 13.2 | 1023.3 | 4.7 | NNO | 51 | 0.0 |
| 23.06.2020 | 07:24 | 15.9 | 84 | 13.2 | 1023.3 | 4.7 | NNW | 49 | 0.0 |
| 23.06.2020 | 07:28 | 16.1 | 84 | 13.4 | 1023.4 | 4.7 | NNO | 53 | 0.0 |
| 23.06.2020 | 07:34 | 16.3 | 84 | 13.6 | 1023.3 | 3.2 | NNO | 54 | 0.0 |
| 23.06.2020 | 07:38 | 16.5 | 83 | 13.6 | 1023.3 | 3.2 | NNO | 90 | 0.0 |
| 23.06.2020 | 07:44 | 16.8 | 82 | 13.7 | 1023.3 | 3.2 | N | 134 | 0.0 |
| 23.06.2020 | 07:48 | 16.9 | 82 | 13.8 | 1023.3 | 4.7 | NNO | 74 | 0.0 |
| 23.06.2020 | 07:54 | 17.2 | 81 | 13.9 | 1023.3 | 6.5 | NNO | 313 | 0.0 |
| 23.06.2020 | 07:58 | 17.5 | 81 | 14.2 | 1023.3 | 4.7 | N | 323 | 0.0 |
| 23.06.2020 | 08:04 | 17.8 | 79 | 14.1 | 1023.3 | 4.7 | NNO | 345 | 0.0 |
| 23.06.2020 | 08:08 | 17.9 | 79 | 14.2 | 1023.4 | 7.9 | NNO | 359 | 0.0 |
| 23.06.2020 | 08:14 | 18.2 | 78 | 14.3 | 1023.3 | 7.9 | NO | 376 | 0.0 |
| 23.06.2020 | 08:18 | 18.4 | 78 | 14.5 | 1023.3 | 6.5 | NNW | 383 | 0.0 |
| 23.06.2020 | 08:24 | 18.8 | 76 | 14.5 | 1023.3 | 4.7 | NO | 401 | 0.0 |
| 23.06.2020 | 08:28 | 18.9 | 76 | 14.6 | 1023.3 | 6.5 | N | 413 | 0.0 |
| 23.06.2020 | 08:34 | 19.2 | 76 | 14.9 | 1023.3 | 6.5 | N | 427 | 0.0 |
| 23.06.2020 | 08:38 | 19.4 | 74 | 14.6 | 1023.4 | 6.5 | NNO | 441 | 0.0 |
| 23.06.2020 | 08:44 | 19.7 | 74 | 14.9 | 1023.4 | 4.7 | NNO | 455 | 0.0 |
| 23.06.2020 | 08:48 | 19.9 | 73 | 14.9 | 1023.3 | 4.7 | ONO | 464 | 0.0 |
| 23.06.2020 | 08:54 | 20.2 | 72 | 15.0 | 1023.3 | 4.7 | O | 489 | 0.0 |
| 23.06.2020 | 08:58 | 20.3 | 71 | 14.9 | 1023.3 | 6.5 | ONO | 497 | 0.0 |
| 23.06.2020 | 09:04 | 20.4 | 69 | 14.5 | 1023.3 | 4.7 | O | 519 | 0.0 |
| 23.06.2020 | 09:08 | 20.6 | 70 | 14.9 | 1023.3 | 6.5 | NNO | 531 | 0.0 |
| 23.06.2020 | 09:14 | 20.8 | 70 | 15.1 | 1023.3 | 6.5 | N | 547 | 0.0 |
| 23.06.2020 | 09:18 | 20.9 | 68 | 14.8 | 1023.2 | 4.7 | N | 557 | 0.0 |
| 23.06.2020 | 09:24 | 21.0 | 67 | 14.6 | 1023.2 | 7.9 | NNO | 575 | 0.0 |
| 23.06.2020 | 09:28 | 21.2 | 67 | 14.8 | 1023.3 | 6.5 | N | 582 | 0.0 |
| 23.06.2020 | 09:34 | 21.3 | 66 | 14.7 | 1023.4 | 6.5 | N | 596 | 0.0 |
| 23.06.2020 | 09:38 | 21.3 | 66 | 14.7 | 1023.3 | 7.9 | ONO | 608 | 0.0 |
| 23.06.2020 | 09:44 | 21.6 | 66 | 15.0 | 1023.3 | 6.5 | NNO | 622 | 0.0 |
| 23.06.2020 | 09:48 | 21.7 | 65 | 14.8 | 1023.3 | 4.7 | NO | 635 | 0.0 |
| 23.06.2020 | 09:54 | 21.7 | 66 | 15.1 | 1023.4 | 6.5 | N | 645 | 0.0 |
| 23.06.2020 | 09:58 | 21.9 | 65 | 15.0 | 1023.3 | 6.5 | ONO | 656 | 0.0 |
| 23.06.2020 | 10:04 | 22.2 | 65 | 15.3 | 1023.4 | 3.2 | NO | 668 | 0.0 |
| 23.06.2020 | 10:08 | 22.3 | 63 | 14.9 | 1023.3 | 4.7 | NO | 682 | 0.0 |
| 23.06.2020 | 10:14 | 22.6 | 63 | 15.2 | 1023.3 | 6.5 | N | 694 | 0.0 |
| 23.06.2020 | 10:18 | 22.5 | 63 | 15.1 | 1023.2 | 7.9 | NO | 707 | 0.0 |
| 23.06.2020 | 10:24 | 22.6 | 63 | 15.2 | 1023.2 | 9.7 | ONO | 719 | 0.0 |
| 23.06.2020 | 10:28 | 22.7 | 64 | 15.5 | 1023.1 | 7.9 | ONO | 726 | 0.0 |
| 23.06.2020 | 10:34 | 23.2 | 63 | 15.8 | 1023.1 | 4.7 | N | 738 | 0.0 |
| 23.06.2020 | 10:38 | 23.2 | 61 | 15.3 | 1023.1 | 4.7 | NNO | 745 | 0.0 |
| 23.06.2020 | 10:44 | 23.2 | 61 | 15.3 | 1023.0 | 7.9 | NNO | 758 | 0.0 |
| 23.06.2020 | 10:48 | 23.3 | 61 | 15.4 | 1023.1 | 7.9 | ONO | 765 | 0.0 |
| 23.06.2020 | 10:54 | 23.4 | 61 | 15.4 | 1023.0 | 6.5 | NNW | 777 | 0.0 |
| 23.06.2020 | 10:58 | 23.5 | 60 | 15.3 | 1023.0 | 7.9 | NNO | 782 | 0.0 |
| 23.06.2020 | 11:04 | 23.7 | 59 | 15.2 | 1023.0 | 7.9 | NNO | 796 | 0.0 |
| 23.06.2020 | 11:08 | 23.6 | 59 | 15.1 | 1023.0 | 9.7 | N | 798 | 0.0 |
| 23.06.2020 | 11:14 | 24.1 | 59 | 15.6 | 1023.0 | 7.9 | NNO | 816 | 0.0 |
| 23.06.2020 | 11:18 | 24.2 | 57 | 15.1 | 1023.0 | 6.5 | ONO | 819 | 0.0 |
| 23.06.2020 | 11:24 | 24.3 | 56 | 15.0 | 1023.0 | 7.9 | NNO | 830 | 0.0 |
| 23.06.2020 | 11:28 | 24.2 | 56 | 14.9 | 1023.0 | 7.9 | NNO | 833 | 0.0 |
| 23.06.2020 | 11:34 | 24.4 | 56 | 15.1 | 1023.0 | 9.7 | NNO | 847 | 0.0 |
| 23.06.2020 | 11:38 | 24.6 | 55 | 15.0 | 1022.8 | 7.9 | NNO | 851 | 0.0 |
| 23.06.2020 | 11:44 | 24.5 | 56 | 15.1 | 1022.8 | 4.7 | NNO | 860 | 0.0 |
| 23.06.2020 | 11:48 | 24.9 | 54 | 15.0 | 1022.8 | 4.7 | NNO | 860 | 0.0 |
| 23.06.2020 | 11:54 | 25.1 | 55 | 15.4 | 1022.8 | 7.9 | NNO | 872 | 0.0 |
| 23.06.2020 | 11:58 | 25.4 | 53 | 15.1 | 1022.8 | 9.7 | NNO | 879 | 0.0 |
| 23.06.2020 | 12:04 | 25.2 | 53 | 14.9 | 1022.8 | 4.7 | NNO | 886 | 0.0 |
| 23.06.2020 | 12:08 | 25.3 | 51 | 14.4 | 1022.8 | 4.7 | N | 889 | 0.0 |
| 23.06.2020 | 12:14 | 25.4 | 51 | 14.5 | 1022.8 | 7.9 | NNW | 896 | 0.0 |
| 23.06.2020 | 12:18 | 25.6 | 52 | 15.0 | 1022.9 | 7.9 | ONO | 891 | 0.0 |
| 23.06.2020 | 12:24 | 25.5 | 50 | 14.3 | 1022.9 | 7.9 | NO | 902 | 0.0 |
| 23.06.2020 | 12:28 | 25.6 | 51 | 14.7 | 1022.8 | 6.5 | ONO | 912 | 0.0 |
| 23.06.2020 | 12:34 | 25.8 | 52 | 15.2 | 1022.8 | 6.5 | ONO | 916 | 0.0 |
| 23.06.2020 | 12:38 | 26.2 | 50 | 15.0 | 1022.7 | 7.9 | NNO | 912 | 0.0 |
| 23.06.2020 | 12:44 | 26.0 | 48 | 14.1 | 1022.6 | 9.7 | NO | 928 | 0.0 |
| 23.06.2020 | 12:48 | 25.7 | 50 | 14.5 | 1022.7 | 6.5 | N | 918 | 0.0 |
| 23.06.2020 | 12:54 | 25.8 | 49 | 14.3 | 1022.6 | 6.5 | N | 919 | 0.0 |
| 23.06.2020 | 12:58 | 25.9 | 50 | 14.7 | 1022.5 | 6.5 | N | 918 | 0.0 |
| 23.06.2020 | 13:04 | 26.3 | 51 | 15.4 | 1022.5 | 4.7 | ONO | 932 | 0.0 |
| 23.06.2020 | 13:08 | 26.6 | 48 | 14.7 | 1022.5 | 6.5 | NNO | 940 | 0.0 |
| 23.06.2020 | 13:14 | 26.9 | 46 | 14.3 | 1022.5 | 4.7 | ONO | 939 | 0.0 |
| 23.06.2020 | 13:18 | 26.8 | 48 | 14.9 | 1022.5 | 4.7 | ONO | 937 | 0.0 |
| 23.06.2020 | 13:24 | 26.7 | 46 | 14.1 | 1022.5 | 4.7 | NO | 940 | 0.0 |
| 23.06.2020 | 13:28 | 27.0 | 45 | 14.1 | 1022.5 | 4.7 | O | 946 | 0.0 |
| 23.06.2020 | 13:34 | 26.9 | 45 | 14.0 | 1022.5 | 7.9 | N | 940 | 0.0 |
| 23.06.2020 | 13:38 | 26.7 | 49 | 15.1 | 1022.5 | 6.5 | O | 926 | 0.0 |
| 23.06.2020 | 13:44 | 26.9 | 44 | 13.6 | 1022.4 | 4.7 | NNO | 925 | 0.0 |
| 23.06.2020 | 13:48 | 26.8 | 45 | 13.9 | 1022.4 | 4.7 | NNO | 933 | 0.0 |
| 23.06.2020 | 13:54 | 27.1 | 45 | 14.1 | 1022.4 | 4.7 | NO | 935 | 0.0 |
| 23.06.2020 | 13:58 | 27.1 | 44 | 13.8 | 1022.2 | 4.7 | ONO | 921 | 0.0 |
| 23.06.2020 | 14:04 | 27.2 | 44 | 13.9 | 1022.2 | 6.5 | NO | 925 | 0.0 |
| 23.06.2020 | 14:08 | 27.0 | 45 | 14.1 | 1022.1 | 6.5 | ONO | 919 | 0.0 |
| 23.06.2020 | 14:14 | 27.5 | 44 | 14.2 | 1022.1 | 6.5 | NNW | 918 | 0.0 |
| 23.06.2020 | 14:18 | 27.0 | 44 | 13.7 | 1022.0 | 4.7 | N | 909 | 0.0 |
| 23.06.2020 | 14:24 | 27.1 | 46 | 14.5 | 1022.0 | 4.7 | N | 900 | 0.0 |
| 23.06.2020 | 14:28 | 27.2 | 46 | 14.6 | 1022.0 | 6.5 | NNO | 900 | 0.0 |
| 23.06.2020 | 14:34 | 27.6 | 43 | 13.9 | 1022.0 | 6.5 | O | 893 | 0.0 |
| 23.06.2020 | 14:38 | 27.5 | 44 | 14.2 | 1021.9 | 7.9 | NNO | 889 | 0.0 |
| 23.06.2020 | 14:44 | 27.3 | 44 | 14.0 | 1021.9 | 9.7 | NO | 888 | 0.0 |
| 23.06.2020 | 14:48 | 27.3 | 42 | 13.3 | 1021.8 | 9.7 | NNO | 884 | 0.0 |
| 23.06.2020 | 14:54 | 27.6 | 44 | 14.2 | 1021.8 | 9.7 | ONO | 874 | 0.0 |
| 23.06.2020 | 14:58 | 27.1 | 42 | 13.1 | 1021.7 | 6.5 | N | 861 | 0.0 |
| 23.06.2020 | 15:04 | 27.6 | 43 | 13.9 | 1021.7 | 4.7 | NNO | 854 | 0.0 |
| 23.06.2020 | 15:08 | 27.6 | 43 | 13.9 | 1021.8 | 7.9 | N | 851 | 0.0 |
| 23.06.2020 | 15:14 | 27.7 | 42 | 13.6 | 1021.7 | 7.9 | NO | 838 | 0.0 |
| 23.06.2020 | 15:18 | 27.8 | 40 | 13.0 | 1021.6 | 7.9 | ONO | 835 | 0.0 |
| 23.06.2020 | 15:24 | 27.9 | 40 | 13.1 | 1021.6 | 9.7 | NNO | 833 | 0.0 |
| 23.06.2020 | 15:28 | 27.9 | 41 | 13.4 | 1021.6 | 9.7 | N | 824 | 0.0 |
| 23.06.2020 | 15:34 | 27.6 | 39 | 12.4 | 1021.6 | 6.5 | NO | 812 | 0.0 |
| 23.06.2020 | 15:38 | 27.8 | 40 | 13.0 | 1021.5 | 6.5 | ONO | 805 | 0.0 |
| 23.06.2020 | 15:44 | 27.9 | 42 | 13.8 | 1021.5 | 6.5 | NNO | 791 | 0.0 |
| 23.06.2020 | 15:48 | 28.1 | 41 | 13.6 | 1021.4 | 6.5 | NO | 784 | 0.0 |
| 23.06.2020 | 15:54 | 28.1 | 39 | 12.8 | 1021.4 | 6.5 | NO | 772 | 0.0 |
| 23.06.2020 | 15:58 | 27.8 | 40 | 13.0 | 1021.4 | 6.5 | ONO | 773 | 0.0 |
| 23.06.2020 | 16:04 | 27.7 | 40 | 12.9 | 1021.4 | 4.7 | NO | 759 | 0.0 |
| 23.06.2020 | 16:08 | 27.9 | 40 | 13.1 | 1021.4 | 4.7 | NO | 742 | 0.0 |
| 23.06.2020 | 16:14 | 28.1 | 38 | 12.4 | 1021.4 | 4.7 | NNO | 733 | 0.0 |
| 23.06.2020 | 16:18 | 27.8 | 40 | 13.0 | 1021.4 | 6.5 | NO | 726 | 0.0 |
| 23.06.2020 | 16:24 | 27.9 | 41 | 13.4 | 1021.3 | 4.7 | NO | 708 | 0.0 |
| 23.06.2020 | 16:28 | 28.0 | 39 | 12.8 | 1021.2 | 6.5 | O | 712 | 0.0 |
| 23.06.2020 | 16:34 | 28.0 | 39 | 12.8 | 1021.2 | 6.5 | O | 689 | 0.0 |
| 23.06.2020 | 16:38 | 28.1 | 39 | 12.8 | 1021.2 | 6.5 | ONO | 677 | 0.0 |
| 23.06.2020 | 16:44 | 28.1 | 40 | 13.2 | 1021.1 | 6.5 | ONO | 663 | 0.0 |
| 23.06.2020 | 16:48 | 27.8 | 39 | 12.6 | 1021.0 | 6.5 | ONO | 656 | 0.0 |
| 23.06.2020 | 16:54 | 28.1 | 40 | 13.2 | 1021.0 | 7.9 | N | 636 | 0.0 |
| 23.06.2020 | 16:58 | 27.9 | 40 | 13.1 | 1021.0 | 7.9 | NO | 628 | 0.0 |
| 23.06.2020 | 17:04 | 27.9 | 39 | 12.7 | 1021.0 | 4.7 | NO | 613 | 0.0 |
| 23.06.2020 | 17:08 | 27.8 | 39 | 12.6 | 1021.0 | 6.5 | ONO | 606 | 0.0 |
| 23.06.2020 | 17:14 | 27.8 | 38 | 12.2 | 1021.0 | 7.9 | NO | 589 | 0.0 |
| 23.06.2020 | 17:18 | 27.7 | 38 | 12.1 | 1020.9 | 4.7 | WNW | 580 | 0.0 |
| 23.06.2020 | 17:24 | 27.9 | 40 | 13.1 | 1020.9 | 3.2 | NNO | 564 | 0.0 |
| 23.06.2020 | 17:28 | 27.8 | 39 | 12.6 | 1020.8 | 6.5 | NO | 557 | 0.0 |
| 23.06.2020 | 17:34 | 27.9 | 41 | 13.4 | 1020.8 | 6.5 | ONO | 536 | 0.0 |
| 23.06.2020 | 17:38 | 28.2 | 40 | 13.3 | 1020.8 | 4.7 | N | 529 | 0.0 |
| 23.06.2020 | 17:44 | 27.5 | 39 | 12.3 | 1020.8 | 3.2 | N | 512 | 0.0 |
| 23.06.2020 | 17:48 | 27.8 | 41 | 13.3 | 1020.8 | 3.2 | NNO | 499 | 0.0 |
| 23.06.2020 | 17:54 | 27.9 | 40 | 13.1 | 1020.7 | 4.7 | NO | 482 | 0.0 |
| 23.06.2020 | 17:58 | 28.1 | 39 | 12.8 | 1020.7 | 3.2 | NNO | 473 | 0.0 |
| 23.06.2020 | 18:04 | 27.9 | 39 | 12.7 | 1020.7 | 6.5 | NO | 455 | 0.0 |
| 23.06.2020 | 18:08 | 27.7 | 40 | 12.9 | 1020.7 | 7.9 | ONO | 439 | 0.0 |
| 23.06.2020 | 18:14 | 27.7 | 39 | 12.5 | 1020.6 | 4.7 | O | 427 | 0.0 |
| 23.06.2020 | 18:18 | 27.7 | 40 | 12.9 | 1020.6 | 3.2 | NO | 415 | 0.0 |
| 23.06.2020 | 18:24 | 27.7 | 41 | 13.3 | 1020.6 | 3.2 | NNO | 399 | 0.0 |
| 23.06.2020 | 18:28 | 27.8 | 41 | 13.3 | 1020.6 | 3.2 | ONO | 388 | 0.0 |
| 23.06.2020 | 18:34 | 27.7 | 39 | 12.5 | 1020.6 | 6.5 | ONO | 373 | 0.0 |
| 23.06.2020 | 18:38 | 27.7 | 39 | 12.5 | 1020.6 | 7.9 | NO | 362 | 0.0 |
| 23.06.2020 | 18:44 | 27.6 | 38 | 12.0 | 1020.7 | 6.5 | NO | 343 | 0.0 |
| 23.06.2020 | 18:48 | 27.4 | 39 | 12.2 | 1020.6 | 4.7 | NO | 332 | 0.0 |
| 23.06.2020 | 18:54 | 27.3 | 40 | 12.5 | 1020.6 | 6.5 | ONO | 315 | 0.0 |
| 23.06.2020 | 18:58 | 27.3 | 41 | 12.9 | 1020.6 | 6.5 | NNO | 302 | 0.0 |
| 23.06.2020 | 19:04 | 27.3 | 41 | 12.9 | 1020.6 | 4.7 | NO | 288 | 0.0 |
| 23.06.2020 | 19:08 | 27.2 | 40 | 12.4 | 1020.7 | 4.7 | NNO | 278 | 0.0 |
| 23.06.2020 | 19:14 | 27.0 | 39 | 11.9 | 1020.6 | 4.7 | NO | 262 | 0.0 |
| 23.06.2020 | 19:18 | 27.1 | 38 | 11.6 | 1020.6 | 4.7 | NO | 253 | 0.0 |
| 23.06.2020 | 19:24 | 26.7 | 40 | 12.0 | 1020.5 | 3.2 | NO | 232 | 0.0 |
| 23.06.2020 | 19:28 | 26.7 | 40 | 12.0 | 1020.5 | 3.2 | NNO | 220 | 0.0 |
| 23.06.2020 | 19:34 | 26.7 | 41 | 12.4 | 1020.4 | 4.7 | NO | 199 | 0.0 |
| 23.06.2020 | 19:38 | 26.6 | 40 | 11.9 | 1020.4 | 4.7 | N | 186 | 0.0 |
| 23.06.2020 | 19:44 | 26.4 | 40 | 11.7 | 1020.4 | 4.7 | NO | 169 | 0.0 |
| 23.06.2020 | 19:48 | 26.4 | 41 | 12.1 | 1020.4 | 4.7 | N | 155 | 0.0 |
| 23.06.2020 | 19:54 | 26.3 | 42 | 12.4 | 1020.4 | 4.7 | NO | 139 | 0.0 |
| 23.06.2020 | 19:58 | 26.3 | 41 | 12.0 | 1020.4 | 4.7 | NO | 123 | 0.0 |
| 23.06.2020 | 20:04 | 26.1 | 42 | 12.2 | 1020.4 | 4.7 | NNO | 107 | 0.0 |
| 23.06.2020 | 20:08 | 26.1 | 42 | 12.2 | 1020.5 | 4.7 | N | 95 | 0.0 |
| 23.06.2020 | 20:14 | 25.9 | 42 | 12.0 | 1020.4 | 3.2 | NO | 81 | 0.0 |
| 23.06.2020 | 20:18 | 25.8 | 42 | 11.9 | 1020.4 | 4.7 | NO | 74 | 0.0 |
| 23.06.2020 | 20:24 | 25.7 | 43 | 12.2 | 1020.5 | 3.2 | NO | 69 | 0.0 |
| 23.06.2020 | 20:28 | 25.5 | 44 | 12.4 | 1020.5 | 1.4 | NNO | 53 | 0.0 |
| 23.06.2020 | 20:34 | 25.3 | 45 | 12.5 | 1020.5 | 1.4 | ONO | 42 | 0.0 |
| 23.06.2020 | 20:38 | 25.1 | 45 | 12.3 | 1020.5 | 1.4 | ONO | 30 | 0.0 |
| 23.06.2020 | 20:44 | 24.8 | 46 | 12.4 | 1020.4 | 3.2 | NO | 28 | 0.0 |
| 23.06.2020 | 20:48 | 24.6 | 48 | 12.9 | 1020.5 | 3.2 | NO | 26 | 0.0 |
| 23.06.2020 | 20:54 | 24.4 | 48 | 12.7 | 1020.6 | 1.4 | ONO | 25 | 0.0 |
| 23.06.2020 | 20:58 | 24.2 | 49 | 12.8 | 1020.5 | 0.0 | ONO | 23 | 0.0 |
| 23.06.2020 | 21:04 | 23.8 | 50 | 12.8 | 1020.6 | 0.0 | ONO | 19 | 0.0 |
| 23.06.2020 | 21:08 | 23.7 | 50 | 12.7 | 1020.5 | 1.4 | ONO | 18 | 0.0 |
| 23.06.2020 | 21:14 | 23.6 | 50 | 12.6 | 1020.5 | 1.4 | NO | 14 | 0.0 |
| 23.06.2020 | 21:18 | 23.4 | 50 | 12.4 | 1020.5 | 1.4 | NNO | 12 | 0.0 |
| 23.06.2020 | 21:24 | 23.2 | 51 | 12.5 | 1020.6 | 0.0 | N | 11 | 0.0 |
| 23.06.2020 | 21:28 | 22.9 | 52 | 12.5 | 1020.6 | 0.0 | N | 9 | 0.0 |
| 23.06.2020 | 21:34 | 22.6 | 52 | 12.2 | 1020.6 | 0.0 | NNO | 7 | 0.0 |
| 23.06.2020 | 21:38 | 22.4 | 53 | 12.3 | 1020.7 | 0.0 | NO | 5 | 0.0 |
| 23.06.2020 | 21:44 | 22.3 | 53 | 12.3 | 1020.7 | 0.0 | NO | 0 | 0.0 |
| 23.06.2020 | 21:48 | 22.2 | 53 | 12.2 | 1020.7 | 0.0 | NO | 0 | 0.0 |
| 23.06.2020 | 21:54 | 21.9 | 54 | 12.2 | 1020.8 | 0.0 | NO | 0 | 0.0 |
| 23.06.2020 | 21:58 | 21.8 | 55 | 12.4 | 1020.8 | 0.0 | NO | 0 | 0.0 |
| 23.06.2020 | 22:04 | 21.6 | 56 | 12.4 | 1020.9 | 0.0 | NO | 0 | 0.0 |
| 23.06.2020 | 22:08 | 21.3 | 57 | 12.4 | 1020.9 | 0.0 | NO | 0 | 0.0 |
| 23.06.2020 | 22:14 | 21.1 | 58 | 12.5 | 1021.0 | 0.0 | NO | 0 | 0.0 |
| 23.06.2020 | 22:18 | 20.8 | 59 | 12.5 | 1020.9 | 0.0 | NO | 0 | 0.0 |
| 23.06.2020 | 22:24 | 20.5 | 60 | 12.5 | 1020.9 | 0.0 | NO | 0 | 0.0 |
| 23.06.2020 | 22:28 | 20.4 | 60 | 12.4 | 1021.0 | 0.0 | NO | 0 | 0.0 |
| 23.06.2020 | 22:34 | 20.4 | 61 | 12.6 | 1021.1 | 0.0 | NO | 0 | 0.0 |
| 23.06.2020 | 22:38 | 20.2 | 62 | 12.7 | 1021.0 | 0.0 | NO | 0 | 0.0 |
| 23.06.2020 | 22:44 | 19.7 | 64 | 12.7 | 1021.1 | 0.0 | NO | 0 | 0.0 |
| 23.06.2020 | 22:48 | 19.4 | 65 | 12.7 | 1021.1 | 0.0 | NO | 0 | 0.0 |
| 23.06.2020 | 22:54 | 19.1 | 66 | 12.6 | 1021.2 | 0.0 | NNO | 0 | 0.0 |
| 23.06.2020 | 22:58 | 19.0 | 66 | 12.5 | 1021.2 | 0.0 | NNO | 0 | 0.0 |
| 23.06.2020 | 23:04 | 18.9 | 66 | 12.4 | 1021.2 | 0.0 | NNO | 0 | 0.0 |
| 23.06.2020 | 23:08 | 18.8 | 67 | 12.5 | 1021.2 | 0.0 | NNO | 0 | 0.0 |
| 23.06.2020 | 23:14 | 18.6 | 67 | 12.4 | 1021.2 | 0.0 | NNO | 0 | 0.0 |
| 23.06.2020 | 23:18 | 18.5 | 68 | 12.5 | 1021.2 | 0.0 | NNO | 0 | 0.0 |
| 23.06.2020 | 23:24 | 18.4 | 68 | 12.4 | 1021.2 | 0.0 | NNO | 0 | 0.0 |
| 23.06.2020 | 23:28 | 18.3 | 68 | 12.3 | 1021.3 | 0.0 | NNO | 0 | 0.0 |
| 23.06.2020 | 23:34 | 18.2 | 69 | 12.4 | 1021.2 | 0.0 | NNO | 0 | 0.0 |
| 23.06.2020 | 23:38 | 18.1 | 70 | 12.5 | 1021.3 | 0.0 | NNO | 0 | 0.0 |
| 23.06.2020 | 23:44 | 17.9 | 70 | 12.4 | 1021.3 | 0.0 | NNO | 0 | 0.0 |
| 23.06.2020 | 23:48 | 17.9 | 70 | 12.4 | 1021.3 | 0.0 | NNO | 0 | 0.0 |
| 23.06.2020 | 23:54 | 17.8 | 70 | 12.3 | 1021.2 | 0.0 | NNO | 0 | 0.0 |
| 23.06.2020 | 23:58 | 17.7 | 71 | 12.4 | 1021.2 | 0.0 | NNO | 0 | 0.0 |